sensor_id;sensor_type;location;lat;lon;timestamp;P1;durP1;ratioP1;P2;durP2;ratioP2
56201;SDS011;42117;50.360;3.508;2023-02-07T00:01:14;21.52;;;7.13;;
56201;SDS011;42117;50.360;3.508;2023-02-07T00:03:41;25.95;;;7.65;;
56201;SDS011;42117;50.360;3.508;2023-02-07T00:06:11;23.45;;;7.38;;
56201;SDS011;42117;50.360;3.508;2023-02-07T00:08:38;27.58;;;7.95;;
56201;SDS011;42117;50.360;3.508;2023-02-07T00:11:10;28.65;;;7.63;;
56201;SDS011;42117;50.360;3.508;2023-02-07T00:13:36;23.23;;;6.70;;
56201;SDS011;42117;50.360;3.508;2023-02-07T00:16:04;17.88;;;7.00;;
56201;SDS011;42117;50.360;3.508;2023-02-07T00:18:31;20.80;;;7.40;;
56201;SDS011;42117;50.360;3.508;2023-02-07T00:21:01;16.83;;;6.53;;
56201;SDS011;42117;50.360;3.508;2023-02-07T00:23:28;23.55;;;7.47;;
56201;SDS011;42117;50.360;3.508;2023-02-07T00:25:54;26.83;;;13.17;;
56201;SDS011;42117;50.360;3.508;2023-02-07T00:28:20;22.33;;;10.77;;
56201;SDS011;42117;50.360;3.508;2023-02-07T00:30:46;26.48;;;7.03;;
56201;SDS011;42117;50.360;3.508;2023-02-07T00:33:12;22.23;;;6.95;;
56201;SDS011;42117;50.360;3.508;2023-02-07T00:35:38;16.58;;;6.20;;
56201;SDS011;42117;50.360;3.508;2023-02-07T00:38:04;18.25;;;7.00;;
56201;SDS011;42117;50.360;3.508;2023-02-07T00:40:30;21.07;;;7.10;;
56201;SDS011;42117;50.360;3.508;2023-02-07T00:42:56;21.10;;;6.85;;
56201;SDS011;42117;50.360;3.508;2023-02-07T00:45:22;22.80;;;7.15;;
56201;SDS011;42117;50.360;3.508;2023-02-07T00:47:48;20.63;;;7.10;;
56201;SDS011;42117;50.360;3.508;2023-02-07T00:50:14;26.48;;;7.25;;
56201;SDS011;42117;50.360;3.508;2023-02-07T00:52:40;15.27;;;6.67;;
56201;SDS011;42117;50.360;3.508;2023-02-07T00:55:06;21.05;;;7.93;;
56201;SDS011;42117;50.360;3.508;2023-02-07T00:57:32;20.30;;;8.30;;
56201;SDS011;42117;50.360;3.508;2023-02-07T00:59:58;17.23;;;8.18;;
56201;SDS011;42117;50.360;3.508;2023-02-07T01:02:24;21.27;;;7.05;;
56201;SDS011;42117;50.360;3.508;2023-02-07T01:04:50;20.20;;;7.67;;
56201;SDS011;42117;50.360;3.508;2023-02-07T01:07:16;29.17;;;8.35;;
56201;SDS011;42117;50.360;3.508;2023-02-07T01:09:42;25.92;;;7.63;;
56201;SDS011;42117;50.360;3.508;2023-02-07T01:12:08;23.50;;;8.05;;
56201;SDS011;42117;50.360;3.508;2023-02-07T01:14:34;27.77;;;7.45;;
56201;SDS011;42117;50.360;3.508;2023-02-07T01:17:00;23.67;;;7.28;;
56201;SDS011;42117;50.360;3.508;2023-02-07T01:19:26;23.65;;;6.97;;
56201;SDS011;42117;50.360;3.508;2023-02-07T01:21:52;23.63;;;7.00;;
56201;SDS011;42117;50.360;3.508;2023-02-07T01:24:18;17.38;;;7.20;;
56201;SDS011;42117;50.360;3.508;2023-02-07T01:26:44;20.85;;;6.90;;
56201;SDS011;42117;50.360;3.508;2023-02-07T01:29:12;27.25;;;7.78;;
56201;SDS011;42117;50.360;3.508;2023-02-07T01:31:39;17.23;;;6.85;;
56201;SDS011;42117;50.360;3.508;2023-02-07T01:34:06;24.95;;;7.55;;
56201;SDS011;42117;50.360;3.508;2023-02-07T01:36:32;15.83;;;6.77;;
56201;SDS011;42117;50.360;3.508;2023-02-07T01:38:58;25.02;;;7.97;;
56201;SDS011;42117;50.360;3.508;2023-02-07T01:41:25;20.27;;;7.63;;
56201;SDS011;42117;50.360;3.508;2023-02-07T01:43:55;19.50;;;7.00;;
56201;SDS011;42117;50.360;3.508;2023-02-07T01:46:21;19.65;;;7.28;;
56201;SDS011;42117;50.360;3.508;2023-02-07T01:48:47;20.60;;;6.90;;
56201;SDS011;42117;50.360;3.508;2023-02-07T01:51:13;21.83;;;7.70;;
56201;SDS011;42117;50.360;3.508;2023-02-07T01:53:39;20.67;;;6.95;;
56201;SDS011;42117;50.360;3.508;2023-02-07T01:56:06;25.83;;;6.78;;
56201;SDS011;42117;50.360;3.508;2023-02-07T01:58:33;21.85;;;7.63;;
56201;SDS011;42117;50.360;3.508;2023-02-07T02:01:00;18.80;;;6.95;;
56201;SDS011;42117;50.360;3.508;2023-02-07T02:03:28;18.75;;;7.00;;
56201;SDS011;42117;50.360;3.508;2023-02-07T02:05:54;19.77;;;7.70;;
56201;SDS011;42117;50.360;3.508;2023-02-07T02:08:21;16.98;;;7.80;;
56201;SDS011;42117;50.360;3.508;2023-02-07T02:11:48;18.80;;;6.95;;
56201;SDS011;42117;50.360;3.508;2023-02-07T02:19:40;19.42;;;8.55;;
56201;SDS011;42117;50.360;3.508;2023-02-07T02:22:04;23.93;;;9.83;;
56201;SDS011;42117;50.360;3.508;2023-02-07T02:24:48;35.87;;;10.60;;
56201;SDS011;42117;50.360;3.508;2023-02-07T02:35:15;27.95;;;10.80;;
56201;SDS011;42117;50.360;3.508;2023-02-07T02:37:39;30.25;;;11.02;;
56201;SDS011;42117;50.360;3.508;2023-02-07T02:40:14;28.58;;;9.70;;
56201;SDS011;42117;50.360;3.508;2023-02-07T02:45:11;24.73;;;9.67;;
56201;SDS011;42117;50.360;3.508;2023-02-07T02:47:39;24.55;;;9.02;;
56201;SDS011;42117;50.360;3.508;2023-02-07T02:50:10;24.48;;;9.43;;
56201;SDS011;42117;50.360;3.508;2023-02-07T02:52:36;30.00;;;9.35;;
56201;SDS011;42117;50.360;3.508;2023-02-07T02:55:02;27.55;;;9.13;;
56201;SDS011;42117;50.360;3.508;2023-02-07T02:58:12;24.95;;;8.73;;
56201;SDS011;42117;50.360;3.508;2023-02-07T03:00:31;25.55;;;7.82;;
56201;SDS011;42117;50.360;3.508;2023-02-07T03:10:29;27.55;;;8.88;;
56201;SDS011;42117;50.360;3.508;2023-02-07T03:15:59;21.47;;;7.77;;
56201;SDS011;42117;50.360;3.508;2023-02-07T03:21:00;21.10;;;8.38;;
56201;SDS011;42117;50.360;3.508;2023-02-07T03:23:28;24.38;;;8.05;;
56201;SDS011;42117;50.360;3.508;2023-02-07T03:25:54;21.02;;;8.95;;
56201;SDS011;42117;50.360;3.508;2023-02-07T03:28:21;28.58;;;9.07;;
56201;SDS011;42117;50.360;3.508;2023-02-07T03:30:48;26.75;;;9.20;;
56201;SDS011;42117;50.360;3.508;2023-02-07T03:33:16;16.67;;;8.38;;
56201;SDS011;42117;50.360;3.508;2023-02-07T03:35:52;24.30;;;9.25;;
56201;SDS011;42117;50.360;3.508;2023-02-07T03:38:20;24.38;;;9.95;;
56201;SDS011;42117;50.360;3.508;2023-02-07T03:40:48;22.23;;;9.40;;
56201;SDS011;42117;50.360;3.508;2023-02-07T03:43:17;27.98;;;9.82;;
56201;SDS011;42117;50.360;3.508;2023-02-07T03:45:44;24.63;;;9.68;;
56201;SDS011;42117;50.360;3.508;2023-02-07T03:48:10;28.40;;;10.20;;
56201;SDS011;42117;50.360;3.508;2023-02-07T03:50:36;39.35;;;10.75;;
56201;SDS011;42117;50.360;3.508;2023-02-07T03:53:03;26.63;;;10.40;;
56201;SDS011;42117;50.360;3.508;2023-02-07T03:55:29;37.47;;;11.23;;
56201;SDS011;42117;50.360;3.508;2023-02-07T03:57:55;33.33;;;10.50;;
56201;SDS011;42117;50.360;3.508;2023-02-07T04:00:21;23.03;;;9.67;;
56201;SDS011;42117;50.360;3.508;2023-02-07T04:02:48;21.02;;;9.88;;
56201;SDS011;42117;50.360;3.508;2023-02-07T04:05:14;27.90;;;10.18;;
56201;SDS011;42117;50.360;3.508;2023-02-07T04:07:40;25.70;;;9.80;;
56201;SDS011;42117;50.360;3.508;2023-02-07T04:10:06;27.80;;;9.48;;
56201;SDS011;42117;50.360;3.508;2023-02-07T04:12:32;24.63;;;9.32;;
56201;SDS011;42117;50.360;3.508;2023-02-07T04:14:59;27.20;;;9.63;;
56201;SDS011;42117;50.360;3.508;2023-02-07T04:17:25;27.67;;;9.27;;
56201;SDS011;42117;50.360;3.508;2023-02-07T04:19:51;31.63;;;9.90;;
56201;SDS011;42117;50.360;3.508;2023-02-07T04:22:17;28.50;;;9.35;;
56201;SDS011;42117;50.360;3.508;2023-02-07T04:24:43;23.58;;;9.45;;
56201;SDS011;42117;50.360;3.508;2023-02-07T04:27:09;28.73;;;9.85;;
56201;SDS011;42117;50.360;3.508;2023-02-07T04:29:35;27.25;;;10.05;;
56201;SDS011;42117;50.360;3.508;2023-02-07T04:32:01;32.30;;;10.10;;
56201;SDS011;42117;50.360;3.508;2023-02-07T04:34:27;32.50;;;10.07;;
56201;SDS011;42117;50.360;3.508;2023-02-07T04:36:53;37.42;;;10.55;;
56201;SDS011;42117;50.360;3.508;2023-02-07T04:39:19;23.58;;;10.05;;
56201;SDS011;42117;50.360;3.508;2023-02-07T04:41:45;35.97;;;11.77;;
56201;SDS011;42117;50.360;3.508;2023-02-07T04:44:11;33.17;;;13.95;;
56201;SDS011;42117;50.360;3.508;2023-02-07T04:46:37;45.05;;;13.88;;
56201;SDS011;42117;50.360;3.508;2023-02-07T04:49:03;39.20;;;11.52;;
56201;SDS011;42117;50.360;3.508;2023-02-07T04:51:29;27.92;;;11.50;;
56201;SDS011;42117;50.360;3.508;2023-02-07T04:53:55;38.25;;;11.75;;
56201;SDS011;42117;50.360;3.508;2023-02-07T04:56:22;31.50;;;11.13;;
56201;SDS011;42117;50.360;3.508;2023-02-07T04:58:48;34.22;;;11.70;;
56201;SDS011;42117;50.360;3.508;2023-02-07T05:01:14;31.63;;;10.88;;
56201;SDS011;42117;50.360;3.508;2023-02-07T05:03:40;35.08;;;11.88;;
56201;SDS011;42117;50.360;3.508;2023-02-07T05:06:06;35.08;;;11.70;;
56201;SDS011;42117;50.360;3.508;2023-02-07T05:08:33;28.77;;;11.00;;
56201;SDS011;42117;50.360;3.508;2023-02-07T05:10:59;28.45;;;12.15;;
56201;SDS011;42117;50.360;3.508;2023-02-07T05:13:25;34.28;;;11.82;;
56201;SDS011;42117;50.360;3.508;2023-02-07T05:15:51;30.85;;;12.15;;
56201;SDS011;42117;50.360;3.508;2023-02-07T05:18:19;38.35;;;12.52;;
56201;SDS011;42117;50.360;3.508;2023-02-07T05:20:45;28.10;;;11.63;;
56201;SDS011;42117;50.360;3.508;2023-02-07T05:23:12;33.03;;;13.13;;
56201;SDS011;42117;50.360;3.508;2023-02-07T05:25:40;45.05;;;12.88;;
56201;SDS011;42117;50.360;3.508;2023-02-07T05:28:06;36.50;;;12.60;;
56201;SDS011;42117;50.360;3.508;2023-02-07T05:30:32;34.65;;;12.32;;
56201;SDS011;42117;50.360;3.508;2023-02-07T05:32:58;34.63;;;12.48;;
56201;SDS011;42117;50.360;3.508;2023-02-07T05:35:34;32.58;;;12.07;;
56201;SDS011;42117;50.360;3.508;2023-02-07T05:38:01;27.02;;;12.30;;
56201;SDS011;42117;50.360;3.508;2023-02-07T05:40:30;36.17;;;12.13;;
56201;SDS011;42117;50.360;3.508;2023-02-07T05:42:56;34.50;;;12.02;;
56201;SDS011;42117;50.360;3.508;2023-02-07T05:45:22;34.63;;;12.85;;
56201;SDS011;42117;50.360;3.508;2023-02-07T05:47:48;40.63;;;12.27;;
56201;SDS011;42117;50.360;3.508;2023-02-07T05:50:14;36.25;;;12.75;;
56201;SDS011;42117;50.360;3.508;2023-02-07T05:52:40;37.80;;;12.55;;
56201;SDS011;42117;50.360;3.508;2023-02-07T05:55:06;35.95;;;12.63;;
56201;SDS011;42117;50.360;3.508;2023-02-07T05:57:33;39.40;;;13.32;;
56201;SDS011;42117;50.360;3.508;2023-02-07T05:59:59;35.70;;;13.18;;
56201;SDS011;42117;50.360;3.508;2023-02-07T06:02:25;41.47;;;13.33;;
56201;SDS011;42117;50.360;3.508;2023-02-07T06:04:51;36.10;;;13.88;;
56201;SDS011;42117;50.360;3.508;2023-02-07T06:07:17;33.72;;;14.85;;
56201;SDS011;42117;50.360;3.508;2023-02-07T06:09:43;36.08;;;14.50;;
56201;SDS011;42117;50.360;3.508;2023-02-07T06:12:09;43.83;;;14.50;;
56201;SDS011;42117;50.360;3.508;2023-02-07T06:14:35;34.73;;;13.57;;
56201;SDS011;42117;50.360;3.508;2023-02-07T06:17:01;47.15;;;14.82;;
56201;SDS011;42117;50.360;3.508;2023-02-07T06:19:27;42.50;;;14.27;;
56201;SDS011;42117;50.360;3.508;2023-02-07T06:21:53;40.00;;;14.68;;
56201;SDS011;42117;50.360;3.508;2023-02-07T06:24:19;39.83;;;15.00;;
56201;SDS011;42117;50.360;3.508;2023-02-07T06:26:46;45.30;;;15.32;;
56201;SDS011;42117;50.360;3.508;2023-02-07T06:29:12;31.33;;;14.85;;
56201;SDS011;42117;50.360;3.508;2023-02-07T06:31:38;35.97;;;14.52;;
56201;SDS011;42117;50.360;3.508;2023-02-07T06:34:04;39.88;;;15.07;;
56201;SDS011;42117;50.360;3.508;2023-02-07T06:36:30;34.95;;;14.75;;
56201;SDS011;42117;50.360;3.508;2023-02-07T06:38:56;31.83;;;14.33;;
56201;SDS011;42117;50.360;3.508;2023-02-07T06:41:23;43.42;;;14.90;;
56201;SDS011;42117;50.360;3.508;2023-02-07T06:43:49;34.70;;;14.63;;
56201;SDS011;42117;50.360;3.508;2023-02-07T06:46:15;43.00;;;15.15;;
56201;SDS011;42117;50.360;3.508;2023-02-07T06:48:41;40.90;;;14.50;;
56201;SDS011;42117;50.360;3.508;2023-02-07T06:51:07;37.95;;;14.68;;
56201;SDS011;42117;50.360;3.508;2023-02-07T06:53:33;36.47;;;14.05;;
56201;SDS011;42117;50.360;3.508;2023-02-07T06:55:59;38.97;;;15.45;;
56201;SDS011;42117;50.360;3.508;2023-02-07T06:58:25;39.53;;;14.75;;
56201;SDS011;42117;50.360;3.508;2023-02-07T07:00:51;42.58;;;14.60;;
56201;SDS011;42117;50.360;3.508;2023-02-07T07:03:17;35.85;;;15.05;;
56201;SDS011;42117;50.360;3.508;2023-02-07T07:05:43;43.40;;;17.08;;
56201;SDS011;42117;50.360;3.508;2023-02-07T07:08:10;40.17;;;16.15;;
56201;SDS011;42117;50.360;3.508;2023-02-07T07:10:38;34.10;;;14.05;;
56201;SDS011;42117;50.360;3.508;2023-02-07T07:13:04;36.25;;;13.80;;
56201;SDS011;42117;50.360;3.508;2023-02-07T07:15:31;31.90;;;13.73;;
56201;SDS011;42117;50.360;3.508;2023-02-07T07:17:57;36.67;;;14.40;;
56201;SDS011;42117;50.360;3.508;2023-02-07T07:20:23;38.33;;;14.27;;
56201;SDS011;42117;50.360;3.508;2023-02-07T07:22:49;41.67;;;16.00;;
56201;SDS011;42117;50.360;3.508;2023-02-07T07:25:15;42.22;;;14.38;;
56201;SDS011;42117;50.360;3.508;2023-02-07T07:27:41;31.38;;;13.52;;
56201;SDS011;42117;50.360;3.508;2023-02-07T07:30:07;36.35;;;14.38;;
56201;SDS011;42117;50.360;3.508;2023-02-07T07:32:34;36.10;;;15.10;;
56201;SDS011;42117;50.360;3.508;2023-02-07T07:35:00;33.20;;;13.50;;
56201;SDS011;42117;50.360;3.508;2023-02-07T07:37:26;32.63;;;14.35;;
56201;SDS011;42117;50.360;3.508;2023-02-07T07:39:52;42.17;;;16.02;;
56201;SDS011;42117;50.360;3.508;2023-02-07T07:42:18;43.15;;;16.25;;
56201;SDS011;42117;50.360;3.508;2023-02-07T07:44:44;39.33;;;15.68;;
56201;SDS011;42117;50.360;3.508;2023-02-07T07:47:10;35.80;;;13.60;;
56201;SDS011;42117;50.360;3.508;2023-02-07T07:49:37;36.35;;;14.98;;
56201;SDS011;42117;50.360;3.508;2023-02-07T07:52:04;33.22;;;13.70;;
56201;SDS011;42117;50.360;3.508;2023-02-07T07:54:30;35.00;;;14.38;;
56201;SDS011;42117;50.360;3.508;2023-02-07T07:56:56;34.20;;;14.38;;
56201;SDS011;42117;50.360;3.508;2023-02-07T07:59:22;39.13;;;15.63;;
56201;SDS011;42117;50.360;3.508;2023-02-07T08:01:48;31.70;;;12.55;;
56201;SDS011;42117;50.360;3.508;2023-02-07T08:04:14;33.70;;;12.60;;
56201;SDS011;42117;50.360;3.508;2023-02-07T08:06:40;39.78;;;12.27;;
56201;SDS011;42117;50.360;3.508;2023-02-07T08:09:06;30.90;;;12.63;;
56201;SDS011;42117;50.360;3.508;2023-02-07T08:11:32;39.47;;;13.23;;
56201;SDS011;42117;50.360;3.508;2023-02-07T08:13:58;34.00;;;12.87;;
56201;SDS011;42117;50.360;3.508;2023-02-07T08:16:24;29.80;;;12.45;;
56201;SDS011;42117;50.360;3.508;2023-02-07T08:18:50;106.35;;;33.88;;
56201;SDS011;42117;50.360;3.508;2023-02-07T08:21:16;37.75;;;13.73;;
56201;SDS011;42117;50.360;3.508;2023-02-07T08:23:42;32.67;;;12.60;;
56201;SDS011;42117;50.360;3.508;2023-02-07T08:26:08;32.43;;;12.53;;
56201;SDS011;42117;50.360;3.508;2023-02-07T08:28:34;28.60;;;12.02;;
56201;SDS011;42117;50.360;3.508;2023-02-07T08:31:02;28.17;;;12.63;;
56201;SDS011;42117;50.360;3.508;2023-02-07T08:33:28;32.33;;;13.20;;
56201;SDS011;42117;50.360;3.508;2023-02-07T08:35:54;26.92;;;11.88;;
56201;SDS011;42117;50.360;3.508;2023-02-07T08:38:20;30.75;;;12.70;;
56201;SDS011;42117;50.360;3.508;2023-02-07T08:40:46;31.63;;;12.60;;
56201;SDS011;42117;50.360;3.508;2023-02-07T08:43:13;28.33;;;12.48;;
56201;SDS011;42117;50.360;3.508;2023-02-07T08:45:39;33.85;;;13.73;;
56201;SDS011;42117;50.360;3.508;2023-02-07T08:48:06;34.03;;;13.75;;
56201;SDS011;42117;50.360;3.508;2023-02-07T08:50:32;30.92;;;13.77;;
56201;SDS011;42117;50.360;3.508;2023-02-07T08:52:58;36.55;;;14.75;;
56201;SDS011;42117;50.360;3.508;2023-02-07T08:55:24;33.93;;;14.00;;
56201;SDS011;42117;50.360;3.508;2023-02-07T08:57:51;38.30;;;13.95;;
56201;SDS011;42117;50.360;3.508;2023-02-07T09:00:17;36.63;;;14.20;;
56201;SDS011;42117;50.360;3.508;2023-02-07T09:02:43;37.00;;;14.52;;
56201;SDS011;42117;50.360;3.508;2023-02-07T09:05:10;34.22;;;13.07;;
56201;SDS011;42117;50.360;3.508;2023-02-07T09:07:36;28.70;;;12.68;;
56201;SDS011;42117;50.360;3.508;2023-02-07T09:10:03;27.40;;;12.80;;
56201;SDS011;42117;50.360;3.508;2023-02-07T09:12:31;27.45;;;12.30;;
56201;SDS011;42117;50.360;3.508;2023-02-07T09:14:57;26.58;;;12.13;;
56201;SDS011;42117;50.360;3.508;2023-02-07T09:17:23;27.50;;;12.45;;
56201;SDS011;42117;50.360;3.508;2023-02-07T09:19:49;28.33;;;12.90;;
56201;SDS011;42117;50.360;3.508;2023-02-07T09:22:15;28.27;;;12.27;;
56201;SDS011;42117;50.360;3.508;2023-02-07T09:24:41;25.30;;;11.20;;
56201;SDS011;42117;50.360;3.508;2023-02-07T09:27:07;29.48;;;12.57;;
56201;SDS011;42117;50.360;3.508;2023-02-07T09:29:34;25.60;;;11.77;;
56201;SDS011;42117;50.360;3.508;2023-02-07T09:32:00;24.60;;;12.25;;
56201;SDS011;42117;50.360;3.508;2023-02-07T09:34:26;25.85;;;11.60;;
56201;SDS011;42117;50.360;3.508;2023-02-07T09:36:52;24.40;;;10.55;;
56201;SDS011;42117;50.360;3.508;2023-02-07T09:39:18;25.35;;;11.20;;
56201;SDS011;42117;50.360;3.508;2023-02-07T09:41:53;27.70;;;11.80;;
56201;SDS011;42117;50.360;3.508;2023-02-07T09:47:11;34.90;;;12.52;;
56201;SDS011;42117;50.360;3.508;2023-02-07T09:49:58;22.95;;;10.57;;
56201;SDS011;42117;50.360;3.508;2023-02-07T09:52:28;28.25;;;12.05;;
56201;SDS011;42117;50.360;3.508;2023-02-07T09:54:55;34.33;;;12.52;;
56201;SDS011;42117;50.360;3.508;2023-02-07T09:57:26;30.67;;;12.40;;
56201;SDS011;42117;50.360;3.508;2023-02-07T10:02:24;29.15;;;12.85;;
56201;SDS011;42117;50.360;3.508;2023-02-07T10:04:53;26.20;;;11.70;;
56201;SDS011;42117;50.360;3.508;2023-02-07T10:07:20;25.02;;;12.05;;
56201;SDS011;42117;50.360;3.508;2023-02-07T10:09:46;27.98;;;12.70;;
56201;SDS011;42117;50.360;3.508;2023-02-07T10:27:42;29.83;;;12.97;;
56201;SDS011;42117;50.360;3.508;2023-02-07T10:30:14;28.20;;;12.67;;
56201;SDS011;42117;50.360;3.508;2023-02-07T10:32:41;31.85;;;13.18;;
56201;SDS011;42117;50.360;3.508;2023-02-07T10:35:20;31.83;;;13.40;;
56201;SDS011;42117;50.360;3.508;2023-02-07T10:37:47;26.52;;;11.82;;
56201;SDS011;42117;50.360;3.508;2023-02-07T10:40:22;30.65;;;12.80;;
56201;SDS011;42117;50.360;3.508;2023-02-07T10:42:51;26.30;;;12.30;;
56201;SDS011;42117;50.360;3.508;2023-02-07T10:45:19;26.17;;;11.50;;
56201;SDS011;42117;50.360;3.508;2023-02-07T10:47:45;26.07;;;12.43;;
56201;SDS011;42117;50.360;3.508;2023-02-07T10:50:16;28.73;;;13.10;;
56201;SDS011;42117;50.360;3.508;2023-02-07T10:52:49;31.55;;;13.68;;
56201;SDS011;42117;50.360;3.508;2023-02-07T10:55:17;31.17;;;12.60;;
56201;SDS011;42117;50.360;3.508;2023-02-07T10:57:51;24.67;;;11.57;;
56201;SDS011;42117;50.360;3.508;2023-02-07T11:00:28;24.85;;;11.52;;
56201;SDS011;42117;50.360;3.508;2023-02-07T11:03:04;26.67;;;11.48;;
56201;SDS011;42117;50.360;3.508;2023-02-07T11:05:32;26.75;;;11.18;;
56201;SDS011;42117;50.360;3.508;2023-02-07T11:08:32;26.33;;;11.30;;
56201;SDS011;42117;50.360;3.508;2023-02-07T11:10:52;27.67;;;12.40;;
56201;SDS011;42117;50.360;3.508;2023-02-07T11:13:20;26.83;;;12.35;;
56201;SDS011;42117;50.360;3.508;2023-02-07T11:15:47;22.50;;;11.33;;
56201;SDS011;42117;50.360;3.508;2023-02-07T11:20:49;27.10;;;11.77;;
56201;SDS011;42117;50.360;3.508;2023-02-07T11:23:17;26.50;;;11.75;;
56201;SDS011;42117;50.360;3.508;2023-02-07T11:25:44;22.90;;;11.40;;
56201;SDS011;42117;50.360;3.508;2023-02-07T11:28:18;22.52;;;11.13;;
56201;SDS011;42117;50.360;3.508;2023-02-07T11:30:44;23.50;;;10.70;;
56201;SDS011;42117;50.360;3.508;2023-02-07T11:33:17;24.90;;;11.23;;
56201;SDS011;42117;50.360;3.508;2023-02-07T11:36:02;22.97;;;10.60;;
56201;SDS011;42117;50.360;3.508;2023-02-07T11:38:30;21.23;;;10.52;;
56201;SDS011;42117;50.360;3.508;2023-02-07T11:40:59;23.33;;;10.27;;
56201;SDS011;42117;50.360;3.508;2023-02-07T11:43:31;24.03;;;10.10;;
56201;SDS011;42117;50.360;3.508;2023-02-07T11:45:58;20.35;;;9.25;;
56201;SDS011;42117;50.360;3.508;2023-02-07T11:48:25;20.63;;;10.17;;
56201;SDS011;42117;50.360;3.508;2023-02-07T11:50:53;22.17;;;10.27;;
56201;SDS011;42117;50.360;3.508;2023-02-07T11:53:21;17.90;;;9.43;;
56201;SDS011;42117;50.360;3.508;2023-02-07T11:55:48;17.65;;;9.40;;
56201;SDS011;42117;50.360;3.508;2023-02-07T11:58:17;16.60;;;9.03;;
56201;SDS011;42117;50.360;3.508;2023-02-07T12:00:44;21.02;;;10.25;;
56201;SDS011;42117;50.360;3.508;2023-02-07T12:03:21;21.90;;;10.45;;
56201;SDS011;42117;50.360;3.508;2023-02-07T12:05:50;21.77;;;9.93;;
56201;SDS011;42117;50.360;3.508;2023-02-07T12:08:18;20.23;;;9.43;;
56201;SDS011;42117;50.360;3.508;2023-02-07T12:10:48;19.65;;;10.25;;
56201;SDS011;42117;50.360;3.508;2023-02-07T12:13:19;17.33;;;8.95;;
56201;SDS011;42117;50.360;3.508;2023-02-07T12:15:59;19.23;;;9.60;;
56201;SDS011;42117;50.360;3.508;2023-02-07T12:23:36;19.83;;;9.85;;
56201;SDS011;42117;50.360;3.508;2023-02-07T12:26:20;20.40;;;9.43;;
56201;SDS011;42117;50.360;3.508;2023-02-07T12:28:50;17.45;;;8.13;;
56201;SDS011;42117;50.360;3.508;2023-02-07T12:31:35;20.42;;;9.32;;
56201;SDS011;42117;50.360;3.508;2023-02-07T12:34:05;21.65;;;9.27;;
56201;SDS011;42117;50.360;3.508;2023-02-07T12:36:35;18.73;;;8.27;;
56201;SDS011;42117;50.360;3.508;2023-02-07T12:39:23;18.50;;;8.32;;
56201;SDS011;42117;50.360;3.508;2023-02-07T12:41:56;16.75;;;7.65;;
56201;SDS011;42117;50.360;3.508;2023-02-07T12:44:37;20.38;;;9.27;;
56201;SDS011;42117;50.360;3.508;2023-02-07T12:47:18;18.45;;;8.40;;
56201;SDS011;42117;50.360;3.508;2023-02-07T12:55:00;25.38;;;10.98;;
56201;SDS011;42117;50.360;3.508;2023-02-07T13:02:36;14.02;;;7.07;;
56201;SDS011;42117;50.360;3.508;2023-02-07T13:05:48;14.10;;;7.07;;
56201;SDS011;42117;50.360;3.508;2023-02-07T13:20:46;21.85;;;8.30;;
56201;SDS011;42117;50.360;3.508;2023-02-07T13:23:22;15.52;;;7.03;;
56201;SDS011;42117;50.360;3.508;2023-02-07T13:25:54;19.50;;;7.57;;
56201;SDS011;42117;50.360;3.508;2023-02-07T13:28:23;16.92;;;7.25;;
56201;SDS011;42117;50.360;3.508;2023-02-07T13:30:54;15.13;;;7.68;;
56201;SDS011;42117;50.360;3.508;2023-02-07T13:33:29;19.83;;;7.88;;
56201;SDS011;42117;50.360;3.508;2023-02-07T13:35:59;15.73;;;7.35;;
56201;SDS011;42117;50.360;3.508;2023-02-07T13:44:14;24.17;;;7.40;;
56201;SDS011;42117;50.360;3.508;2023-02-07T13:46:52;12.60;;;6.22;;
56201;SDS011;42117;50.360;3.508;2023-02-07T13:49:28;13.75;;;6.57;;
56201;SDS011;42117;50.360;3.508;2023-02-07T13:52:09;14.25;;;5.72;;
56201;SDS011;42117;50.360;3.508;2023-02-07T13:54:41;10.88;;;5.18;;
56201;SDS011;42117;50.360;3.508;2023-02-07T13:57:20;9.82;;;5.43;;
56201;SDS011;42117;50.360;3.508;2023-02-07T14:02:38;11.20;;;6.22;;
56201;SDS011;42117;50.360;3.508;2023-02-07T14:05:06;11.23;;;5.13;;
56201;SDS011;42117;50.360;3.508;2023-02-07T14:07:33;9.07;;;5.43;;
56201;SDS011;42117;50.360;3.508;2023-02-07T14:10:00;13.38;;;5.43;;
56201;SDS011;42117;50.360;3.508;2023-02-07T14:12:27;10.18;;;5.53;;
56201;SDS011;42117;50.360;3.508;2023-02-07T14:14:54;9.88;;;5.93;;
56201;SDS011;42117;50.360;3.508;2023-02-07T14:19:53;9.68;;;5.28;;
56201;SDS011;42117;50.360;3.508;2023-02-07T14:24:50;10.68;;;5.45;;
56201;SDS011;42117;50.360;3.508;2023-02-07T14:32:38;13.35;;;6.50;;
56201;SDS011;42117;50.360;3.508;2023-02-07T14:37:42;12.05;;;6.53;;
56201;SDS011;42117;50.360;3.508;2023-02-07T14:40:20;13.02;;;6.20;;
56201;SDS011;42117;50.360;3.508;2023-02-07T14:45:22;13.73;;;6.50;;
56201;SDS011;42117;50.360;3.508;2023-02-07T14:47:49;13.27;;;6.03;;
56201;SDS011;42117;50.360;3.508;2023-02-07T14:50:20;13.00;;;6.25;;
56201;SDS011;42117;50.360;3.508;2023-02-07T14:52:48;9.15;;;5.50;;
56201;SDS011;42117;50.360;3.508;2023-02-07T14:55:16;11.27;;;6.05;;
56201;SDS011;42117;50.360;3.508;2023-02-07T15:00:38;10.30;;;5.90;;
56201;SDS011;42117;50.360;3.508;2023-02-07T15:03:09;20.52;;;16.92;;
56201;SDS011;42117;50.360;3.508;2023-02-07T15:05:37;10.38;;;6.82;;
56201;SDS011;42117;50.360;3.508;2023-02-07T15:08:05;8.88;;;5.15;;
56201;SDS011;42117;50.360;3.508;2023-02-07T15:10:33;10.52;;;5.05;;
56201;SDS011;42117;50.360;3.508;2023-02-07T15:12:59;9.43;;;5.10;;
56201;SDS011;42117;50.360;3.508;2023-02-07T15:15:27;9.00;;;4.78;;
56201;SDS011;42117;50.360;3.508;2023-02-07T15:17:55;13.00;;;5.68;;
56201;SDS011;42117;50.360;3.508;2023-02-07T15:20:24;8.13;;;5.32;;
56201;SDS011;42117;50.360;3.508;2023-02-07T15:22:51;11.68;;;5.40;;
56201;SDS011;42117;50.360;3.508;2023-02-07T15:25:18;10.55;;;5.38;;
56201;SDS011;42117;50.360;3.508;2023-02-07T15:27:58;10.52;;;5.82;;
56201;SDS011;42117;50.360;3.508;2023-02-07T15:30:24;11.03;;;5.87;;
56201;SDS011;42117;50.360;3.508;2023-02-07T15:32:50;14.80;;;7.10;;
56201;SDS011;42117;50.360;3.508;2023-02-07T15:37:42;17.15;;;7.07;;
56201;SDS011;42117;50.360;3.508;2023-02-07T15:40:13;12.70;;;6.65;;
56201;SDS011;42117;50.360;3.508;2023-02-07T15:42:48;19.25;;;6.72;;
56201;SDS011;42117;50.360;3.508;2023-02-07T15:48:43;16.38;;;7.43;;
56201;SDS011;42117;50.360;3.508;2023-02-07T15:50:35;12.93;;;6.55;;
56201;SDS011;42117;50.360;3.508;2023-02-07T15:53:03;13.17;;;6.77;;
56201;SDS011;42117;50.360;3.508;2023-02-07T15:58:02;12.27;;;6.50;;
56201;SDS011;42117;50.360;3.508;2023-02-07T16:00:36;9.40;;;5.80;;
56201;SDS011;42117;50.360;3.508;2023-02-07T16:03:04;8.38;;;5.07;;
56201;SDS011;42117;50.360;3.508;2023-02-07T16:05:31;11.35;;;5.65;;
56201;SDS011;42117;50.360;3.508;2023-02-07T16:07:58;8.52;;;5.10;;
56201;SDS011;42117;50.360;3.508;2023-02-07T16:15:27;11.07;;;5.17;;
56201;SDS011;42117;50.360;3.508;2023-02-07T16:17:53;7.77;;;4.60;;
56201;SDS011;42117;50.360;3.508;2023-02-07T16:20:20;9.57;;;4.90;;
56201;SDS011;42117;50.360;3.508;2023-02-07T16:22:47;9.30;;;5.57;;
56201;SDS011;42117;50.360;3.508;2023-02-07T16:25:18;11.60;;;5.50;;
56201;SDS011;42117;50.360;3.508;2023-02-07T16:27:45;12.20;;;5.30;;
56201;SDS011;42117;50.360;3.508;2023-02-07T16:30:13;8.90;;;5.50;;
56201;SDS011;42117;50.360;3.508;2023-02-07T16:32:39;10.63;;;5.97;;
56201;SDS011;42117;50.360;3.508;2023-02-07T16:35:15;15.05;;;6.13;;